sensor_id;sensor_type;location;lat;lon;timestamp;pressure;altitude;pressure_sealevel;temperature;humidity
4972;BME280;2501;51.214;6.768;2023-02-11T00:01:21;103198.81;;;6.37;87.76
4972;BME280;2501;51.214;6.768;2023-02-11T00:03:54;103189.84;;;6.18;88.35
4972;BME280;2501;51.214;6.768;2023-02-11T00:06:24;103183.81;;;6.47;87.62
4972;BME280;2501;51.214;6.768;2023-02-11T00:08:54;103190.50;;;6.29;87.18
4972;BME280;2501;51.214;6.768;2023-02-11T00:11:24;103192.78;;;6.38;87.26
4972;BME280;2501;51.214;6.768;2023-02-11T00:13:55;103187.91;;;6.29;87.79
4972;BME280;2501;51.214;6.768;2023-02-11T00:16:23;103195.81;;;6.31;87.73
4972;BME280;2501;51.214;6.768;2023-02-11T00:18:55;103192.50;;;6.33;87.99
4972;BME280;2501;51.214;6.768;2023-02-11T00:21:24;103181.31;;;6.49;87.20
4972;BME280;2501;51.214;6.768;2023-02-11T00:23:53;103181.22;;;6.47;86.74
4972;BME280;2501;51.214;6.768;2023-02-11T00:26:23;103181.03;;;6.16;87.76
4972;BME280;2501;51.214;6.768;2023-02-11T00:28:52;103166.28;;;6.45;87.42
4972;BME280;2501;51.214;6.768;2023-02-11T00:31:24;103164.91;;;6.37;88.17
4972;BME280;2501;51.214;6.768;2023-02-11T00:33:55;103150.16;;;6.22;87.87
4972;BME280;2501;51.214;6.768;2023-02-11T00:36:25;103153.13;;;5.87;88.61
4972;BME280;2501;51.214;6.768;2023-02-11T00:38:55;103150.41;;;5.99;89.36
4972;BME280;2501;51.214;6.768;2023-02-11T00:41:24;103156.06;;;5.66;90.28
4972;BME280;2501;51.214;6.768;2023-02-11T00:43:53;103156.06;;;5.66;91.40
4972;BME280;2501;51.214;6.768;2023-02-11T00:46:21;103162.03;;;5.78;91.94
4972;BME280;2501;51.214;6.768;2023-02-11T00:48:50;103163.28;;;5.70;91.57
4972;BME280;2501;51.214;6.768;2023-02-11T00:51:25;103161.41;;;6.08;90.71
4972;BME280;2501;51.214;6.768;2023-02-11T00:53:54;103165.72;;;6.08;90.26
4972;BME280;2501;51.214;6.768;2023-02-11T00:56:22;103169.41;;;6.11;89.29
4972;BME280;2501;51.214;6.768;2023-02-11T00:58:51;103164.94;;;6.23;88.97
4972;BME280;2501;51.214;6.768;2023-02-11T01:01:19;103169.81;;;6.17;89.05
4972;BME280;2501;51.214;6.768;2023-02-11T01:03:48;103172.03;;;6.11;89.01
4972;BME280;2501;51.214;6.768;2023-02-11T01:06:17;103166.06;;;5.86;89.68
4972;BME280;2501;51.214;6.768;2023-02-11T01:08:48;103155.47;;;6.11;89.70
4972;BME280;2501;51.214;6.768;2023-02-11T01:11:19;103151.97;;;6.10;89.42
4972;BME280;2501;51.214;6.768;2023-02-11T01:13:48;103154.63;;;5.97;89.55
4972;BME280;2501;51.214;6.768;2023-02-11T01:16:18;103157.84;;;5.93;90.32
4972;BME280;2501;51.214;6.768;2023-02-11T01:18:47;103156.75;;;5.76;90.23
4972;BME280;2501;51.214;6.768;2023-02-11T01:21:15;103163.84;;;5.79;91.44
4972;BME280;2501;51.214;6.768;2023-02-11T01:23:44;103164.34;;;6.00;90.51
4972;BME280;2501;51.214;6.768;2023-02-11T01:26:15;103160.75;;;5.98;90.04
4972;BME280;2501;51.214;6.768;2023-02-11T01:28:44;103155.03;;;5.77;90.11
4972;BME280;2501;51.214;6.768;2023-02-11T01:31:12;103159.34;;;5.89;90.72
4972;BME280;2501;51.214;6.768;2023-02-11T01:33:41;103167.34;;;5.79;90.68
4972;BME280;2501;51.214;6.768;2023-02-11T01:36:10;103163.25;;;5.96;90.82
4972;BME280;2501;51.214;6.768;2023-02-11T01:38:39;103161.28;;;6.07;90.29
4972;BME280;2501;51.214;6.768;2023-02-11T01:41:11;103172.91;;;6.12;89.82
4972;BME280;2501;51.214;6.768;2023-02-11T01:43:45;103167.94;;;6.02;89.75
4972;BME280;2501;51.214;6.768;2023-02-11T01:46:22;103169.97;;;5.79;90.18
4972;BME280;2501;51.214;6.768;2023-02-11T01:48:55;103184.88;;;5.95;90.85
4972;BME280;2501;51.214;6.768;2023-02-11T01:51:28;103182.09;;;5.92;91.20
4972;BME280;2501;51.214;6.768;2023-02-11T01:53:58;103186.50;;;5.93;90.27
4972;BME280;2501;51.214;6.768;2023-02-11T01:56:43;103181.28;;;5.93;90.73
4972;BME280;2501;51.214;6.768;2023-02-11T01:59:31;103169.56;;;6.00;90.44
4972;BME280;2501;51.214;6.768;2023-02-11T02:02:06;103160.03;;;6.00;90.21
4972;BME280;2501;51.214;6.768;2023-02-11T02:04:41;103156.56;;;5.60;91.18
4972;BME280;2501;51.214;6.768;2023-02-11T02:07:18;103154.88;;;5.60;92.09
4972;BME280;2501;51.214;6.768;2023-02-11T02:09:57;103146.75;;;5.56;93.07
4972;BME280;2501;51.214;6.768;2023-02-11T02:12:27;103151.88;;;6.09;91.40
4972;BME280;2501;51.214;6.768;2023-02-11T02:15:19;103146.41;;;5.78;90.59
4972;BME280;2501;51.214;6.768;2023-02-11T02:18:07;103143.47;;;5.45;92.31
4972;BME280;2501;51.214;6.768;2023-02-11T02:20:56;103143.75;;;5.63;93.23
4972;BME280;2501;51.214;6.768;2023-02-11T02:29:48;103155.28;;;5.40;94.44
4972;BME280;2501;51.214;6.768;2023-02-11T02:32:29;103149.38;;;5.43;94.58
4972;BME280;2501;51.214;6.768;2023-02-11T02:35:06;103135.25;;;5.39;94.68
4972;BME280;2501;51.214;6.768;2023-02-11T02:37:43;103144.69;;;5.50;95.00
4972;BME280;2501;51.214;6.768;2023-02-11T02:40:18;103133.66;;;5.41;94.75
4972;BME280;2501;51.214;6.768;2023-02-11T02:42:48;103131.06;;;5.41;94.94
4972;BME280;2501;51.214;6.768;2023-02-11T02:45:18;103125.38;;;5.34;95.16
4972;BME280;2501;51.214;6.768;2023-02-11T02:47:49;103131.84;;;5.40;95.42
4972;BME280;2501;51.214;6.768;2023-02-11T02:50:22;103125.38;;;5.75;94.30
4972;BME280;2501;51.214;6.768;2023-02-11T02:53:04;103130.22;;;5.69;94.07
4972;BME280;2501;51.214;6.768;2023-02-11T02:55:50;103123.06;;;5.92;93.29
4972;BME280;2501;51.214;6.768;2023-02-11T02:58:42;103126.38;;;6.03;91.80
4972;BME280;2501;51.214;6.768;2023-02-11T03:01:25;103124.47;;;5.87;92.58
4972;BME280;2501;51.214;6.768;2023-02-11T03:04:05;103123.06;;;5.92;91.41
4972;BME280;2501;51.214;6.768;2023-02-11T03:06:44;103125.94;;;5.69;92.33
4972;BME280;2501;51.214;6.768;2023-02-11T03:09:18;103120.91;;;6.13;92.08
4972;BME280;2501;51.214;6.768;2023-02-11T03:11:49;103135.13;;;6.18;90.65
4972;BME280;2501;51.214;6.768;2023-02-11T03:14:18;103130.78;;;5.91;90.20
4972;BME280;2501;51.214;6.768;2023-02-11T03:16:47;103127.97;;;6.01;90.72
4972;BME280;2501;51.214;6.768;2023-02-11T03:19:21;103123.16;;;5.94;91.12
4972;BME280;2501;51.214;6.768;2023-02-11T03:21:52;103115.25;;;5.92;91.21
4972;BME280;2501;51.214;6.768;2023-02-11T03:24:27;103102.75;;;6.15;91.31
4972;BME280;2501;51.214;6.768;2023-02-11T03:26:59;103091.78;;;6.06;90.64
4972;BME280;2501;51.214;6.768;2023-02-11T03:29:32;103086.72;;;5.94;91.16
4972;BME280;2501;51.214;6.768;2023-02-11T03:32:05;103094.84;;;6.13;90.65
4972;BME280;2501;51.214;6.768;2023-02-11T03:34:46;103089.59;;;5.99;90.58
4972;BME280;2501;51.214;6.768;2023-02-11T03:37:19;103093.72;;;5.95;91.27
4972;BME280;2501;51.214;6.768;2023-02-11T03:39:52;103095.53;;;5.83;91.63
4972;BME280;2501;51.214;6.768;2023-02-11T03:42:26;103088.50;;;5.95;91.93
4972;BME280;2501;51.214;6.768;2023-02-11T03:45:00;103095.03;;;5.75;91.81
4972;BME280;2501;51.214;6.768;2023-02-11T03:47:33;103092.13;;;5.84;92.58
4972;BME280;2501;51.214;6.768;2023-02-11T03:50:07;103103.91;;;6.05;92.20
4972;BME280;2501;51.214;6.768;2023-02-11T03:52:37;103104.94;;;6.22;91.36
4972;BME280;2501;51.214;6.768;2023-02-11T03:55:09;103108.25;;;6.19;90.84
4972;BME280;2501;51.214;6.768;2023-02-11T03:57:39;103106.88;;;6.11;91.14
4972;BME280;2501;51.214;6.768;2023-02-11T04:00:11;103100.13;;;5.87;92.07
4972;BME280;2501;51.214;6.768;2023-02-11T04:02:40;103102.63;;;5.99;92.38
4972;BME280;2501;51.214;6.768;2023-02-11T04:05:13;103097.44;;;5.85;93.16
4972;BME280;2501;51.214;6.768;2023-02-11T04:07:42;103095.63;;;5.98;93.31
4972;BME280;2501;51.214;6.768;2023-02-11T04:10:11;103102.69;;;5.59;93.75
4972;BME280;2501;51.214;6.768;2023-02-11T04:12:40;103095.91;;;6.02;93.89
4972;BME280;2501;51.214;6.768;2023-02-11T04:15:08;103088.84;;;5.73;94.01
4972;BME280;2501;51.214;6.768;2023-02-11T04:17:38;103086.09;;;5.98;93.74
4972;BME280;2501;51.214;6.768;2023-02-11T04:20:07;103089.69;;;6.00;93.59
4972;BME280;2501;51.214;6.768;2023-02-11T04:22:38;103092.63;;;5.78;94.09
4972;BME280;2501;51.214;6.768;2023-02-11T04:25:08;103093.13;;;5.73;94.54
4972;BME280;2501;51.214;6.768;2023-02-11T04:27:36;103081.03;;;5.73;95.04
4972;BME280;2501;51.214;6.768;2023-02-11T04:30:08;103080.88;;;5.70;94.92
4972;BME280;2501;51.214;6.768;2023-02-11T04:32:38;103081.81;;;5.85;95.31
4972;BME280;2501;51.214;6.768;2023-02-11T04:35:07;103082.22;;;6.19;94.33
4972;BME280;2501;51.214;6.768;2023-02-11T04:37:38;103082.31;;;6.21;93.53
4972;BME280;2501;51.214;6.768;2023-02-11T04:40:10;103097.56;;;5.74;93.49
4972;BME280;2501;51.214;6.768;2023-02-11T04:42:39;103102.91;;;6.03;94.54
4972;BME280;2501;51.214;6.768;2023-02-11T04:45:08;103088.91;;;6.01;94.33
4972;BME280;2501;51.214;6.768;2023-02-11T04:47:36;103091.72;;;5.91;94.08
4972;BME280;2501;51.214;6.768;2023-02-11T04:50:05;103090.72;;;5.89;94.61
4972;BME280;2501;51.214;6.768;2023-02-11T04:52:34;103094.41;;;6.06;95.13
4972;BME280;2501;51.214;6.768;2023-02-11T04:55:05;103106.03;;;5.98;95.36
4972;BME280;2501;51.214;6.768;2023-02-11T04:57:34;103102.34;;;6.22;95.29
4972;BME280;2501;51.214;6.768;2023-02-11T05:00:03;103101.38;;;6.07;95.66
4972;BME280;2501;51.214;6.768;2023-02-11T05:02:32;103095.53;;;5.96;95.96
4972;BME280;2501;51.214;6.768;2023-02-11T05:05:01;103094.44;;;5.92;96.61
4972;BME280;2501;51.214;6.768;2023-02-11T05:07:29;103103.03;;;5.91;96.69
4972;BME280;2501;51.214;6.768;2023-02-11T05:09:58;103092.63;;;5.91;97.14
4972;BME280;2501;51.214;6.768;2023-02-11T05:12:29;103094.53;;;5.94;97.27
4972;BME280;2501;51.214;6.768;2023-02-11T05:14:57;103088.31;;;5.92;97.59
4972;BME280;2501;51.214;6.768;2023-02-11T05:17:26;103096.03;;;5.90;97.44
4972;BME280;2501;51.214;6.768;2023-02-11T05:19:54;103094.53;;;5.81;97.93
4972;BME280;2501;51.214;6.768;2023-02-11T05:22:23;103094.72;;;5.84;98.28
4972;BME280;2501;51.214;6.768;2023-02-11T05:24:51;103094.03;;;5.73;98.64
4972;BME280;2501;51.214;6.768;2023-02-11T05:27:20;103089.94;;;5.77;99.00
4972;BME280;2501;51.214;6.768;2023-02-11T05:29:51;103091.31;;;5.85;99.24
4972;BME280;2501;51.214;6.768;2023-02-11T05:32:19;103085.19;;;5.98;98.90
4972;BME280;2501;51.214;6.768;2023-02-11T05:34:48;103079.72;;;5.80;99.29
4972;BME280;2501;51.214;6.768;2023-02-11T05:37:16;103092.53;;;5.90;99.31
4972;BME280;2501;51.214;6.768;2023-02-11T05:39:45;103091.13;;;5.54;99.99
4972;BME280;2501;51.214;6.768;2023-02-11T05:42:13;103098.78;;;5.66;100.00
4972;BME280;2501;51.214;6.768;2023-02-11T05:44:41;103090.03;;;5.91;100.00
4972;BME280;2501;51.214;6.768;2023-02-11T05:47:12;103082.63;;;5.84;99.89
4972;BME280;2501;51.214;6.768;2023-02-11T05:49:41;103075.97;;;5.62;100.00
4972;BME280;2501;51.214;6.768;2023-02-11T05:52:09;103067.69;;;5.82;100.00
4972;BME280;2501;51.214;6.768;2023-02-11T05:54:38;103063.88;;;5.90;100.00
4972;BME280;2501;51.214;6.768;2023-02-11T05:57:06;103057.78;;;5.76;100.00
4972;BME280;2501;51.214;6.768;2023-02-11T05:59:35;103065.78;;;5.38;100.00
4972;BME280;2501;51.214;6.768;2023-02-11T06:02:03;103063.34;;;5.68;100.00
4972;BME280;2501;51.214;6.768;2023-02-11T06:04:35;103069.66;;;5.71;100.00
4972;BME280;2501;51.214;6.768;2023-02-11T06:07:04;103068.59;;;5.82;100.00
4972;BME280;2501;51.214;6.768;2023-02-11T06:09:32;103079.16;;;5.71;100.00
4972;BME280;2501;51.214;6.768;2023-02-11T06:12:00;103072.16;;;5.70;100.00
4972;BME280;2501;51.214;6.768;2023-02-11T06:14:31;103080.50;;;5.51;100.00
4972;BME280;2501;51.214;6.768;2023-02-11T06:17:00;103086.47;;;5.63;100.00
4972;BME280;2501;51.214;6.768;2023-02-11T06:19:28;103081.91;;;5.46;100.00
4972;BME280;2501;51.214;6.768;2023-02-11T06:21:59;103082.41;;;5.53;100.00
4972;BME280;2501;51.214;6.768;2023-02-11T06:24:30;103077.16;;;5.67;100.00
4972;BME280;2501;51.214;6.768;2023-02-11T06:26:58;103071.72;;;5.77;100.00
4972;BME280;2501;51.214;6.768;2023-02-11T06:29:27;103075.41;;;5.80;100.00
4972;BME280;2501;51.214;6.768;2023-02-11T06:31:55;103080.09;;;5.99;100.00
4972;BME280;2501;51.214;6.768;2023-02-11T06:34:23;103079.50;;;5.90;100.00
4972;BME280;2501;51.214;6.768;2023-02-11T06:36:52;103086.97;;;5.71;100.00
4972;BME280;2501;51.214;6.768;2023-02-11T06:39:23;103086.63;;;5.92;100.00
4972;BME280;2501;51.214;6.768;2023-02-11T06:41:51;103088.50;;;5.54;100.00
4972;BME280;2501;51.214;6.768;2023-02-11T06:44:20;103092.53;;;5.77;100.00
4972;BME280;2501;51.214;6.768;2023-02-11T06:46:48;103088.53;;;5.82;100.00
4972;BME280;2501;51.214;6.768;2023-02-11T06:49:17;103085.81;;;5.93;100.00
4972;BME280;2501;51.214;6.768;2023-02-11T06:51:45;103087.31;;;5.90;100.00
4972;BME280;2501;51.214;6.768;2023-02-11T06:54:14;103093.91;;;5.98;100.00
4972;BME280;2501;51.214;6.768;2023-02-11T06:56:45;103096.91;;;6.04;100.00
4972;BME280;2501;51.214;6.768;2023-02-11T06:59:14;103091.81;;;5.92;100.00
4972;BME280;2501;51.214;6.768;2023-02-11T07:01:43;103099.94;;;5.97;100.00
4972;BME280;2501;51.214;6.768;2023-02-11T07:04:12;103094.31;;;6.04;100.00
4972;BME280;2501;51.214;6.768;2023-02-11T07:06:41;103095.44;;;5.81;100.00
4972;BME280;2501;51.214;6.768;2023-02-11T07:09:10;103096.53;;;5.85;100.00
4972;BME280;2501;51.214;6.768;2023-02-11T07:11:38;103094.25;;;6.17;100.00
4972;BME280;2501;51.214;6.768;2023-02-11T07:14:09;103090.03;;;6.19;100.00
4972;BME280;2501;51.214;6.768;2023-02-11T07:16:38;103087.09;;;6.00;100.00
4972;BME280;2501;51.214;6.768;2023-02-11T07:19:06;103092.91;;;5.96;100.00
4972;BME280;2501;51.214;6.768;2023-02-11T07:21:35;103098.31;;;5.99;100.00
4972;BME280;2501;51.214;6.768;2023-02-11T07:24:05;103112.56;;;5.91;100.00
4972;BME280;2501;51.214;6.768;2023-02-11T07:26:34;103110.28;;;6.10;100.00
4972;BME280;2501;51.214;6.768;2023-02-11T07:29:03;103106.06;;;5.84;100.00
4972;BME280;2501;51.214;6.768;2023-02-11T07:31:34;103099.22;;;6.00;100.00
4972;BME280;2501;51.214;6.768;2023-02-11T07:34:03;103107.53;;;5.94;100.00
4972;BME280;2501;51.214;6.768;2023-02-11T07:36:31;103109.75;;;5.88;100.00
4972;BME280;2501;51.214;6.768;2023-02-11T07:39:00;103112.78;;;5.81;100.00
4972;BME280;2501;51.214;6.768;2023-02-11T07:41:28;103115.50;;;6.10;100.00
4972;BME280;2501;51.214;6.768;2023-02-11T07:44:01;103116.28;;;6.22;100.00
4972;BME280;2501;51.214;6.768;2023-02-11T07:46:29;103114.50;;;6.08;100.00
4972;BME280;2501;51.214;6.768;2023-02-11T07:49:01;103126.28;;;6.02;100.00
4972;BME280;2501;51.214;6.768;2023-02-11T07:51:30;103128.28;;;5.79;100.00
4972;BME280;2501;51.214;6.768;2023-02-11T07:53:59;103132.47;;;6.32;100.00
4972;BME280;2501;51.214;6.768;2023-02-11T07:56:28;103142.91;;;6.46;100.00
4972;BME280;2501;51.214;6.768;2023-02-11T07:58:59;103136.47;;;6.54;100.00
4972;BME280;2501;51.214;6.768;2023-02-11T08:01:29;103132.16;;;6.55;100.00
4972;BME280;2501;51.214;6.768;2023-02-11T08:04:01;103134.00;;;6.00;100.00
4972;BME280;2501;51.214;6.768;2023-02-11T08:06:31;103139.19;;;6.28;100.00
4972;BME280;2501;51.214;6.768;2023-02-11T08:09:03;103143.06;;;6.35;100.00
4972;BME280;2501;51.214;6.768;2023-02-11T08:11:32;103138.66;;;6.34;100.00
4972;BME280;2501;51.214;6.768;2023-02-11T08:14:01;103136.78;;;6.46;100.00
4972;BME280;2501;51.214;6.768;2023-02-11T08:16:32;103138.84;;;6.37;100.00
4972;BME280;2501;51.214;6.768;2023-02-11T08:19:05;103136.19;;;6.50;100.00
4972;BME280;2501;51.214;6.768;2023-02-11T08:21:34;103138.06;;;6.38;100.00
4972;BME280;2501;51.214;6.768;2023-02-11T08:24:04;103136.22;;;6.22;100.00
4972;BME280;2501;51.214;6.768;2023-02-11T08:26:33;103141.66;;;6.40;100.00
4972;BME280;2501;51.214;6.768;2023-02-11T08:29:05;103136.66;;;6.29;100.00
4972;BME280;2501;51.214;6.768;2023-02-11T08:31:37;103144.69;;;6.33;100.00
4972;BME280;2501;51.214;6.768;2023-02-11T08:34:09;103143.88;;;6.34;100.00
4972;BME280;2501;51.214;6.768;2023-02-11T08:36:40;103140.81;;;6.41;100.00
4972;BME280;2501;51.214;6.768;2023-02-11T08:39:13;103144.63;;;6.46;100.00
4972;BME280;2501;51.214;6.768;2023-02-11T08:41:42;103148.22;;;6.48;100.00
4972;BME280;2501;51.214;6.768;2023-02-11T08:44:11;103150.97;;;6.08;100.00
4972;BME280;2501;51.214;6.768;2023-02-11T08:46:40;103159.22;;;6.29;100.00
4972;BME280;2501;51.214;6.768;2023-02-11T08:49:11;103157.47;;;6.15;100.00
4972;BME280;2501;51.214;6.768;2023-02-11T08:51:40;103161.13;;;6.32;100.00
4972;BME280;2501;51.214;6.768;2023-02-11T08:54:09;103147.78;;;6.55;100.00
4972;BME280;2501;51.214;6.768;2023-02-11T08:56:38;103152.00;;;6.53;100.00
4972;BME280;2501;51.214;6.768;2023-02-11T08:59:07;103155.53;;;6.68;100.00
4972;BME280;2501;51.214;6.768;2023-02-11T09:01:36;103163.38;;;6.68;100.00
4972;BME280;2501;51.214;6.768;2023-02-11T09:04:04;103172.47;;;6.75;100.00
4972;BME280;2501;51.214;6.768;2023-02-11T09:06:35;103174.06;;;6.58;100.00
4972;BME280;2501;51.214;6.768;2023-02-11T09:09:04;103177.75;;;6.76;100.00
4972;BME280;2501;51.214;6.768;2023-02-11T09:11:34;103173.22;;;6.59;100.00
4972;BME280;2501;51.214;6.768;2023-02-11T09:14:04;103177.75;;;6.76;100.00
4972;BME280;2501;51.214;6.768;2023-02-11T09:16:34;103183.16;;;6.37;100.00
4972;BME280;2501;51.214;6.768;2023-02-11T09:19:04;103188.38;;;6.79;100.00
4972;BME280;2501;51.214;6.768;2023-02-11T09:21:35;103186.03;;;6.98;100.00
4972;BME280;2501;51.214;6.768;2023-02-11T09:24:04;103193.91;;;6.56;100.00
4972;BME280;2501;51.214;6.768;2023-02-11T09:26:34;103189.47;;;6.97;100.00
4972;BME280;2501;51.214;6.768;2023-02-11T09:29:04;103194.66;;;6.83;99.75
4972;BME280;2501;51.214;6.768;2023-02-11T09:31:33;103194.59;;;6.96;99.91
4972;BME280;2501;51.214;6.768;2023-02-11T09:34:03;103197.91;;;6.93;99.92
4972;BME280;2501;51.214;6.768;2023-02-11T09:36:36;103198.19;;;6.83;99.72
4972;BME280;2501;51.214;6.768;2023-02-11T09:39:07;103195.25;;;6.92;99.87
4972;BME280;2501;51.214;6.768;2023-02-11T09:42:07;103197.84;;;6.92;99.87
4972;BME280;2501;51.214;6.768;2023-02-11T09:44:38;103190.44;;;7.14;99.39
4972;BME280;2501;51.214;6.768;2023-02-11T09:47:20;103192.63;;;7.07;99.17
4972;BME280;2501;51.214;6.768;2023-02-11T09:49:55;103191.63;;;7.05;99.12
4972;BME280;2501;51.214;6.768;2023-02-11T09:52:34;103198.84;;;7.09;99.10
4972;BME280;2501;51.214;6.768;2023-02-11T09:55:09;103203.97;;;6.92;99.17
4972;BME280;2501;51.214;6.768;2023-02-11T09:57:39;103205.50;;;7.04;99.50
4972;BME280;2501;51.214;6.768;2023-02-11T10:00:17;103206.38;;;7.04;99.41
4972;BME280;2501;51.214;6.768;2023-02-11T10:02:57;103217.53;;;7.16;99.34
4972;BME280;2501;51.214;6.768;2023-02-11T10:05:37;103230.06;;;7.37;98.91
4972;BME280;2501;51.214;6.768;2023-02-11T10:08:15;103232.13;;;7.42;98.38
4972;BME280;2501;51.214;6.768;2023-02-11T10:10:51;103234.72;;;7.13;98.57
4972;BME280;2501;51.214;6.768;2023-02-11T10:13:42;103228.78;;;7.15;99.40
4972;BME280;2501;51.214;6.768;2023-02-11T10:16:23;103232.50;;;7.19;99.00
4972;BME280;2501;51.214;6.768;2023-02-11T10:19:21;103230.78;;;7.05;98.97
4972;BME280;2501;51.214;6.768;2023-02-11T10:22:01;103231.50;;;7.17;99.48
4972;BME280;2501;51.214;6.768;2023-02-11T10:24:35;103234.47;;;7.08;99.90
4972;BME280;2501;51.214;6.768;2023-02-11T10:27:13;103233.09;;;7.15;99.84
4972;BME280;2501;51.214;6.768;2023-02-11T10:29:47;103232.69;;;7.07;100.00
4972;BME280;2501;51.214;6.768;2023-02-11T10:32:28;103231.69;;;7.05;99.93
4972;BME280;2501;51.214;6.768;2023-02-11T10:35:01;103225.19;;;7.13;99.94
4972;BME280;2501;51.214;6.768;2023-02-11T10:37:31;103229.78;;;7.17;99.90
4972;BME280;2501;51.214;6.768;2023-02-11T10:40:02;103235.00;;;7.17;99.71
4972;BME280;2501;51.214;6.768;2023-02-11T10:42:30;103236.44;;;6.97;99.97
4972;BME280;2501;51.214;6.768;2023-02-11T10:45:03;103240.41;;;7.06;100.00
4972;BME280;2501;51.214;6.768;2023-02-11T10:47:35;103238.78;;;7.08;100.00
4972;BME280;2501;51.214;6.768;2023-02-11T10:50:20;103239.84;;;6.96;100.00
4972;BME280;2501;51.214;6.768;2023-02-11T10:52:48;103239.78;;;7.24;100.00
4972;BME280;2501;51.214;6.768;2023-02-11T10:55:21;103238.88;;;7.09;100.00
4972;BME280;2501;51.214;6.768;2023-02-11T10:57:55;103239.41;;;7.04;100.00
4972;BME280;2501;51.214;6.768;2023-02-11T11:00:37;103235.09;;;7.19;100.00
4972;BME280;2501;51.214;6.768;2023-02-11T11:03:15;103235.28;;;7.07;100.00
4972;BME280;2501;51.214;6.768;2023-02-11T11:05:48;103236.19;;;7.08;100.00
4972;BME280;2501;51.214;6.768;2023-02-11T11:08:18;103241.88;;;6.73;100.00
4972;BME280;2501;51.214;6.768;2023-02-11T11:11:01;103237.44;;;7.29;100.00
4972;BME280;2501;51.214;6.768;2023-02-11T11:13:32;103242.09;;;6.90;100.00
4972;BME280;2501;51.214;6.768;2023-02-11T11:16:20;103242.94;;;7.19;100.00
4972;BME280;2501;51.214;6.768;2023-02-11T11:18:50;103249.44;;;7.25;100.00
4972;BME280;2501;51.214;6.768;2023-02-11T11:21:22;103245.44;;;7.32;100.00
4972;BME280;2501;51.214;6.768;2023-02-11T11:23:54;103253.75;;;7.25;100.00
4972;BME280;2501;51.214;6.768;2023-02-11T11:26:27;103250.47;;;7.14;100.00
4972;BME280;2501;51.214;6.768;2023-02-11T11:29:09;103241.22;;;7.05;100.00
4972;BME280;2501;51.214;6.768;2023-02-11T11:31:47;103236.28;;;7.09;100.00
4972;BME280;2501;51.214;6.768;2023-02-11T11:34:25;103248.69;;;7.13;100.00
4972;BME280;2501;51.214;6.768;2023-02-11T11:36:55;103245.16;;;6.98;100.00
4972;BME280;2501;51.214;6.768;2023-02-11T11:39:26;103246.75;;;6.96;100.00
4972;BME280;2501;51.214;6.768;2023-02-11T11:42:00;103247.66;;;6.96;100.00
4972;BME280;2501;51.214;6.768;2023-02-11T11:44:31;103252.00;;;7.11;100.00
4972;BME280;2501;51.214;6.768;2023-02-11T11:47:17;103248.16;;;7.19;100.00
4972;BME280;2501;51.214;6.768;2023-02-11T11:49:50;103241.22;;;7.19;100.00
4972;BME280;2501;51.214;6.768;2023-02-11T11:52:32;103247.16;;;7.46;100.00
4972;BME280;2501;51.214;6.768;2023-02-11T11:55:10;103240.69;;;7.25;100.00
4972;BME280;2501;51.214;6.768;2023-02-11T11:57:43;103241.22;;;7.34;100.00
4972;BME280;2501;51.214;6.768;2023-02-11T12:00:17;103233.84;;;7.42;100.00
4972;BME280;2501;51.214;6.768;2023-02-11T12:05:48;103234.09;;;7.17;100.00
4972;BME280;2501;51.214;6.768;2023-02-11T12:08:22;103241.22;;;7.19;100.00
4972;BME280;2501;51.214;6.768;2023-02-11T12:11:05;103238.09;;;7.25;100.00
4972;BME280;2501;51.214;6.768;2023-02-11T12:13:47;103230.34;;;7.26;100.00
4972;BME280;2501;51.214;6.768;2023-02-11T12:16:28;103236.28;;;7.24;100.00
4972;BME280;2501;51.214;6.768;2023-02-11T12:19:25;103233.91;;;7.14;100.00
4972;BME280;2501;51.214;6.768;2023-02-11T12:22:06;103230.16;;;7.09;100.00
4972;BME280;2501;51.214;6.768;2023-02-11T12:24:53;103227.38;;;7.20;100.00
4972;BME280;2501;51.214;6.768;2023-02-11T12:27:36;103237.09;;;7.23;100.00
4972;BME280;2501;51.214;6.768;2023-02-11T12:30:20;103237.59;;;7.32;100.00
4972;BME280;2501;51.214;6.768;2023-02-11T12:32:56;103229.88;;;7.33;100.00
4972;BME280;2501;51.214;6.768;2023-02-11T12:35:38;103232.28;;;7.30;100.00
4972;BME280;2501;51.214;6.768;2023-02-11T12:38:29;103224.63;;;7.48;100.00
4972;BME280;2501;51.214;6.768;2023-02-11T12:41:13;103217.25;;;7.56;100.00
4972;BME280;2501;51.214;6.768;2023-02-11T12:43:43;103220.13;;;7.60;99.89
4972;BME280;2501;51.214;6.768;2023-02-11T12:46:32;103215.19;;;7.50;99.50
4972;BME280;2501;51.214;6.768;2023-02-11T12:49:17;103227.53;;;7.53;99.89
4972;BME280;2501;51.214;6.768;2023-02-11T12:51:58;103218.69;;;7.51;99.82
4972;BME280;2501;51.214;6.768;2023-02-11T12:54:30;103219.31;;;7.61;100.00
4972;BME280;2501;51.214;6.768;2023-02-11T12:57:12;103217.13;;;7.69;99.63
4972;BME280;2501;51.214;6.768;2023-02-11T12:59:52;103219.31;;;7.61;99.17
4972;BME280;2501;51.214;6.768;2023-02-11T13:02:32;103220.47;;;7.66;99.77
4972;BME280;2501;51.214;6.768;2023-02-11T13:05:07;103210.44;;;7.43;99.54
4972;BME280;2501;51.214;6.768;2023-02-11T13:07:42;103204.78;;;7.66;99.22
4972;BME280;2501;51.214;6.768;2023-02-11T13:10:21;103198.47;;;8.09;98.50
4972;BME280;2501;51.214;6.768;2023-02-11T13:12:53;103199.38;;;7.78;97.36
4972;BME280;2501;51.214;6.768;2023-02-11T13:15:35;103210.78;;;7.95;97.06
4972;BME280;2501;51.214;6.768;2023-02-11T13:18:16;103203.94;;;7.82;97.86
4972;BME280;2501;51.214;6.768;2023-02-11T13:20:50;103200.91;;;8.06;97.26
4972;BME280;2501;51.214;6.768;2023-02-11T13:23:25;103200.41;;;7.96;96.69
4972;BME280;2501;51.214;6.768;2023-02-11T13:26:02;103203.06;;;7.98;97.50
4972;BME280;2501;51.214;6.768;2023-02-11T13:28:40;103202.34;;;8.00;97.01
4972;BME280;2501;51.214;6.768;2023-02-11T13:31:11;103203.41;;;8.35;96.73
4972;BME280;2501;51.214;6.768;2023-02-11T13:33:43;103204.13;;;8.49;96.10
4972;BME280;2501;51.214;6.768;2023-02-11T13:36:19;103209.72;;;8.38;94.31
4972;BME280;2501;51.214;6.768;2023-02-11T13:38:53;103207.00;;;8.37;93.92
4972;BME280;2501;51.214;6.768;2023-02-11T13:41:26;103208.25;;;7.96;94.30
4972;BME280;2501;51.214;6.768;2023-02-11T13:43:58;103208.56;;;8.50;94.94
4972;BME280;2501;51.214;6.768;2023-02-11T13:49:22;103206.06;;;7.73;96.33
4972;BME280;2501;51.214;6.768;2023-02-11T13:51:53;103207.00;;;8.53;95.68
4972;BME280;2501;51.214;6.768;2023-02-11T13:54:29;103204.19;;;8.99;93.77
4972;BME280;2501;51.214;6.768;2023-02-11T14:03:36;103207.53;;;8.31;93.33
4972;BME280;2501;51.214;6.768;2023-02-11T14:06:25;103206.53;;;8.44;93.79